Terminal Aerodrome Forecast
Issued by NWS Rapid City, SD

Home | Current Version | Previous Version | Text Only | Print | Product List | Glossary On
Versions: 1 2 3 4 5 6 7 8 9 10 11 12 13 14
686
FTUS43 KUNR 221720
TAFRAP
TAF
KRAP 221720Z 2218/2318 16017G27KT P6SM SCT030 BKN050
     FM230400 13008KT P6SM BKN025
     FM230800 12006KT P6SM OVC010=

USA.gov is the U.S. government's official web portal to all federal, state and local government web resources and services.